Time;durP1;ratioP1;P1;durP2;ratioP2;P2;SDS_P1;SDS_P2;PMS_P1;PMS_P2;Temp;Humidity;BMP_temperature;BMP_pressure;BME280_temperature;BME280_humidity;BME280_pressure;Samples;Min_cycle;Max_cycle;Signal;HPM_P1;HPM_P2
2024/01/24 00:00:56;;;;;;;0.30;0.30;;;;;;;;;;5035473;28;20651;-79
2024/01/24 00:03:24;;;;;;;0.10;0.10;;;;;;;;;;5044582;28;20040;-78
2024/01/24 00:05:51;;;;;;;0.10;0.10;;;;;;;;;;5042241;28;20050;-78
2024/01/24 00:08:19;;;;;;;0.43;0.43;;;;;;;;;;5043676;28;20800;-78
2024/01/24 00:10:46;;;;;;;0.20;0.20;;;;;;;;;;5037768;28;20491;-78
2024/01/24 00:13:14;;;;;;;0.30;0.30;;;;;;;;;;5046203;28;20055;-78
2024/01/24 00:15:41;;;;;;;0.30;0.30;;;;;;;;;;5038824;28;20152;-78
2024/01/24 00:18:09;;;;;;;5.15;0.95;;;;;;;;;;5040301;28;20502;-78
2024/01/24 00:20:36;;;;;;;0.10;0.10;;;;;;;;;;5040826;28;20041;-78
2024/01/24 00:23:04;;;;;;;0.45;0.45;;;;;;;;;;5048803;28;20102;-78
2024/01/24 00:25:32;;;;;;;1.08;0.98;;;;;;;;;;5045595;28;20114;-78
2024/01/24 00:27:59;;;;;;;4.75;2.80;;;;;;;;;;5042435;28;20131;-78
2024/01/24 00:30:26;;;;;;;0.60;0.60;;;;;;;;;;5040398;28;20037;-78
2024/01/24 00:32:54;;;;;;;2.05;1.75;;;;;;;;;;5053939;28;20041;-78
2024/01/24 00:35:21;;;;;;;1.42;1.27;;;;;;;;;;5054111;28;20057;-78
2024/01/24 00:37:49;;;;;;;0.50;0.50;;;;;;;;;;5043353;28;20054;-78
2024/01/24 00:40:17;;;;;;;1.88;1.50;;;;;;;;;;5038315;28;20702;-78
2024/01/24 00:42:44;;;;;;;0.40;0.40;;;;;;;;;;5048097;28;20055;-78
2024/01/24 00:45:13;;;;;;;0.50;0.50;;;;;;;;;;5039310;28;20056;-78
2024/01/24 00:47:41;;;;;;;4.95;1.88;;;;;;;;;;5049523;28;20128;-78
2024/01/24 00:50:09;;;;;;;1.55;1.08;;;;;;;;;;5037856;28;20052;-78
2024/01/24 00:52:36;;;;;;;1.45;1.30;;;;;;;;;;5045521;28;20154;-78
2024/01/24 00:55:04;;;;;;;0.60;0.60;;;;;;;;;;5033991;28;20084;-78
2024/01/24 00:57:31;;;;;;;0.77;0.35;;;;;;;;;;5039070;28;20057;-78
2024/01/24 00:59:59;;;;;;;0.82;0.82;;;;;;;;;;5046381;28;20138;-78
2024/01/24 01:02:28;;;;;;;2.38;2.17;;;;;;;;;;5045198;28;20050;-78
2024/01/24 01:04:56;;;;;;;0.98;0.90;;;;;;;;;;5037033;28;20506;-78
2024/01/24 01:07:23;;;;;;;0.90;0.90;;;;;;;;;;5047722;28;20479;-78
2024/01/24 01:09:51;;;;;;;0.45;0.45;;;;;;;;;;5045629;28;20090;-78
2024/01/24 01:12:18;;;;;;;0.82;0.82;;;;;;;;;;5039905;28;20048;-78
2024/01/24 01:14:46;;;;;;;4.38;2.72;;;;;;;;;;5041626;28;21851;-78
2024/01/24 01:17:14;;;;;;;2.25;1.52;;;;;;;;;;5043089;28;20539;-79
2024/01/24 01:19:41;;;;;;;5.68;3.90;;;;;;;;;;5039716;28;20040;-79
2024/01/24 01:22:09;;;;;;;0.30;0.30;;;;;;;;;;5045361;28;20415;-80
2024/01/24 01:24:36;;;;;;;0.45;0.45;;;;;;;;;;5040387;28;20080;-80
2024/01/24 01:27:04;;;;;;;0.00;0.00;;;;;;;;;;5052646;28;20630;-78
2024/01/24 01:29:37;;;;;;;0.82;0.82;;;;;;;;;;5050708;28;20136;-80
2024/01/24 01:32:05;;;;;;;0.10;0.10;;;;;;;;;;5048934;28;20508;-80
2024/01/24 01:34:33;;;;;;;0.10;0.10;;;;;;;;;;5041545;28;20061;-80
2024/01/24 01:37:00;;;;;;;0.10;0.10;;;;;;;;;;5047801;28;20080;-79
2024/01/24 01:39:28;;;;;;;0.10;0.10;;;;;;;;;;5052743;28;20116;-80
2024/01/24 01:41:56;;;;;;;0.10;0.10;;;;;;;;;;5043942;28;21749;-80
2024/01/24 01:44:23;;;;;;;0.10;0.10;;;;;;;;;;5045035;28;20115;-80
2024/01/24 01:46:51;;;;;;;0.25;0.25;;;;;;;;;;5038406;28;20072;-80
2024/01/24 01:49:20;;;;;;;1.20;1.15;;;;;;;;;;5042804;28;20047;-80
2024/01/24 01:51:48;;;;;;;1.55;1.45;;;;;;;;;;5046250;28;20132;-81
2024/01/24 01:54:16;;;;;;;6.70;2.25;;;;;;;;;;5045689;28;20119;-79
2024/01/24 01:56:44;;;;;;;1.65;0.77;;;;;;;;;;5048479;28;20166;-80
2024/01/24 01:59:12;;;;;;;3.92;2.00;;;;;;;;;;5041864;28;20310;-80
2024/01/24 02:01:40;;;;;;;1.60;1.27;;;;;;;;;;5037509;28;20036;-80
2024/01/24 02:04:08;;;;;;;4.72;4.30;;;;;;;;;;5042105;28;20455;-80
2024/01/24 02:06:35;;;;;;;2.50;2.08;;;;;;;;;;5051877;28;20411;-80
2024/01/24 02:09:08;;;;;;;0.10;0.10;;;;;;;;;;5049856;28;20071;-80
2024/01/24 02:11:36;;;;;;;0.60;0.60;;;;;;;;;;5049569;28;20127;-80
2024/01/24 02:14:03;;;;;;;2.92;2.17;;;;;;;;;;5047633;28;20048;-80
2024/01/24 02:16:31;;;;;;;2.72;1.40;;;;;;;;;;5037721;28;20057;-80
2024/01/24 02:18:59;;;;;;;1.13;1.10;;;;;;;;;;5043203;28;20462;-80
2024/01/24 02:21:27;;;;;;;14.20;8.27;;;;;;;;;;5026716;28;20344;-80
2024/01/24 02:23:55;;;;;;;6.38;4.18;;;;;;;;;;5048005;28;20059;-80
2024/01/24 02:26:22;;;;;;;1.55;1.30;;;;;;;;;;5049836;28;20490;-80
2024/01/24 02:28:50;;;;;;;0.80;0.70;;;;;;;;;;5046464;28;20136;-80
2024/01/24 02:31:17;;;;;;;1.17;1.10;;;;;;;;;;5038708;28;20056;-80
2024/01/24 02:33:45;;;;;;;0.77;0.77;;;;;;;;;;5036039;28;20041;-80
2024/01/24 02:36:14;;;;;;;0.65;0.65;;;;;;;;;;5043710;28;20052;-80
2024/01/24 02:38:42;;;;;;;2.58;1.88;;;;;;;;;;5042113;28;20071;-80
2024/01/24 02:41:10;;;;;;;6.00;5.15;;;;;;;;;;5047453;28;20182;-80
2024/01/24 02:43:37;;;;;;;2.85;2.65;;;;;;;;;;5045222;28;21700;-80
2024/01/24 02:46:05;;;;;;;0.60;0.60;;;;;;;;;;5050983;28;20053;-80
2024/01/24 02:48:33;;;;;;;0.35;0.30;;;;;;;;;;5048120;28;20445;-80
2024/01/24 02:51:00;;;;;;;2.17;2.03;;;;;;;;;;5045117;28;20044;-80
2024/01/24 02:53:28;;;;;;;0.85;0.57;;;;;;;;;;5047953;28;20421;-80
2024/01/24 02:55:55;;;;;;;0.35;0.35;;;;;;;;;;5040697;28;20127;-80
2024/01/24 02:58:23;;;;;;;0.17;0.17;;;;;;;;;;5064084;22;20135;-72
2024/01/24 03:00:50;;;;;;;0.10;0.10;;;;;;;;;;5073727;28;20130;-72
2024/01/24 03:03:18;;;;;;;0.10;0.10;;;;;;;;;;5081951;28;20052;-72
2024/01/24 03:05:45;;;;;;;0.10;0.10;;;;;;;;;;5068642;28;20053;-72
2024/01/24 03:08:13;;;;;;;0.70;0.70;;;;;;;;;;5055794;28;20393;-72
2024/01/24 03:10:40;;;;;;;3.33;1.38;;;;;;;;;;5058223;28;20088;-72
2024/01/24 03:13:08;;;;;;;0.10;0.10;;;;;;;;;;5064415;28;20110;-72
2024/01/24 03:15:35;;;;;;;0.17;0.17;;;;;;;;;;5060351;28;20052;-72
2024/01/24 03:18:03;;;;;;;2.53;1.23;;;;;;;;;;5061539;28;20297;-72
2024/01/24 03:20:32;;;;;;;0.82;0.82;;;;;;;;;;5061504;28;20083;-72
2024/01/24 03:22:59;;;;;;;3.22;2.33;;;;;;;;;;5062611;28;20571;-72
2024/01/24 03:25:30;;;;;;;0.20;0.20;;;;;;;;;;5056720;28;20197;-72
2024/01/24 03:27:58;;;;;;;0.60;0.60;;;;;;;;;;5063543;28;20580;-72
2024/01/24 03:30:26;;;;;;;1.98;1.88;;;;;;;;;;5061977;28;20040;-72
2024/01/24 03:32:54;;;;;;;0.68;0.68;;;;;;;;;;5064502;28;20068;-72
2024/01/24 03:35:21;;;;;;;0.10;0.10;;;;;;;;;;5066550;28;20049;-72
2024/01/24 03:37:49;;;;;;;0.68;0.68;;;;;;;;;;5061913;28;20395;-72
2024/01/24 03:40:16;;;;;;;1.20;0.77;;;;;;;;;;5060068;28;20544;-72
2024/01/24 03:42:44;;;;;;;11.50;7.68;;;;;;;;;;5060007;28;20106;-72
2024/01/24 03:45:12;;;;;;;0.10;0.10;;;;;;;;;;5060535;28;20398;-72
2024/01/24 03:47:39;;;;;;;1.02;0.93;;;;;;;;;;5066173;28;20041;-72
2024/01/24 03:50:07;;;;;;;1.65;1.55;;;;;;;;;;5068150;28;20090;-72
2024/01/24 03:52:34;;;;;;;0.25;0.25;;;;;;;;;;5067072;28;21410;-72
2024/01/24 03:55:02;;;;;;;0.10;0.10;;;;;;;;;;5065916;28;20040;-72
2024/01/24 03:57:29;;;;;;;0.25;0.25;;;;;;;;;;5060453;28;20123;-72
2024/01/24 03:59:57;;;;;;;0.10;0.10;;;;;;;;;;5060590;28;20049;-72
2024/01/24 04:02:24;;;;;;;0.10;0.10;;;;;;;;;;5056513;28;20048;-72
2024/01/24 04:04:52;;;;;;;0.25;0.15;;;;;;;;;;5062373;28;20041;-72
2024/01/24 04:07:20;;;;;;;0.30;0.30;;;;;;;;;;5062419;28;20044;-72
2024/01/24 04:09:47;;;;;;;0.10;0.10;;;;;;;;;;5063883;28;20052;-72
2024/01/24 04:12:15;;;;;;;2.92;1.42;;;;;;;;;;5063073;28;20402;-73
2024/01/24 04:14:42;;;;;;;3.47;2.55;;;;;;;;;;5055807;28;20498;-73
2024/01/24 04:17:10;;;;;;;0.10;0.10;;;;;;;;;;5056321;28;20391;-73
2024/01/24 04:19:38;;;;;;;1.70;1.10;;;;;;;;;;5061031;28;20502;-73
2024/01/24 04:22:07;;;;;;;1.73;1.63;;;;;;;;;;5058975;28;20130;-73
2024/01/24 04:24:35;;;;;;;4.28;3.28;;;;;;;;;;5063465;28;20123;-73
2024/01/24 04:27:02;;;;;;;1.30;0.85;;;;;;;;;;5065284;28;20292;-73
2024/01/24 04:29:30;;;;;;;4.25;1.02;;;;;;;;;;5063132;28;20064;-73
2024/01/24 04:31:57;;;;;;;0.30;0.30;;;;;;;;;;5059683;28;20051;-73
2024/01/24 04:34:25;;;;;;;3.08;2.72;;;;;;;;;;5064249;28;20041;-73
2024/01/24 04:36:56;;;;;;;2.92;0.47;;;;;;;;;;5063465;28;20466;-73
2024/01/24 04:39:23;;;;;;;1.90;1.73;;;;;;;;;;5063994;28;20129;-73
2024/01/24 04:41:51;;;;;;;1.23;1.05;;;;;;;;;;5063911;28;20270;-73
2024/01/24 04:44:28;;;;;;;2.38;2.17;;;;;;;;;;5063853;28;20166;-74
2024/01/24 04:46:55;;;;;;;1.55;1.45;;;;;;;;;;5059023;28;20500;-73
2024/01/24 04:49:23;;;;;;;1.80;1.70;;;;;;;;;;5068899;28;20131;-73
2024/01/24 04:52:06;;;;;;;1.38;1.08;;;;;;;;;;5056199;28;20048;-73
2024/01/24 04:54:34;;;;;;;1.35;1.30;;;;;;;;;;5060726;28;20057;-73
2024/01/24 04:57:03;;;;;;;1.17;0.85;;;;;;;;;;5065500;28;20040;-73
2024/01/24 04:59:31;;;;;;;1.55;0.68;;;;;;;;;;5056793;28;20053;-74
2024/01/24 05:02:12;;;;;;;0.68;0.68;;;;;;;;;;5051960;28;20315;-74
2024/01/24 05:04:39;;;;;;;0.65;0.52;;;;;;;;;;5065831;28;20096;-74
2024/01/24 05:07:07;;;;;;;0.10;0.10;;;;;;;;;;5058440;28;20402;-74
2024/01/24 05:09:35;;;;;;;0.50;0.50;;;;;;;;;;5054412;28;20090;-74
2024/01/24 05:12:02;;;;;;;0.35;0.35;;;;;;;;;;5054571;28;20454;-74
2024/01/24 05:14:30;;;;;;;0.28;0.20;;;;;;;;;;5066291;28;20080;-74
2024/01/24 05:16:57;;;;;;;0.13;0.13;;;;;;;;;;5056744;28;20067;-73
2024/01/24 05:19:25;;;;;;;0.10;0.10;;;;;;;;;;5064201;28;20059;-74
2024/01/24 05:21:52;;;;;;;0.10;0.10;;;;;;;;;;5065088;28;20135;-74
2024/01/24 05:24:20;;;;;;;0.10;0.10;;;;;;;;;;5059339;28;20040;-73
2024/01/24 05:26:47;;;;;;;0.10;0.10;;;;;;;;;;5063230;28;20579;-74
2024/01/24 05:29:15;;;;;;;0.70;0.40;;;;;;;;;;5057091;28;20052;-74
2024/01/24 05:31:42;;;;;;;0.10;0.10;;;;;;;;;;5061535;28;20055;-74
2024/01/24 05:34:10;;;;;;;1.00;1.00;;;;;;;;;;5065098;28;20049;-74
2024/01/24 05:36:39;;;;;;;0.10;0.10;;;;;;;;;;5057815;28;20105;-74
2024/01/24 05:39:07;;;;;;;0.60;0.60;;;;;;;;;;5055868;28;20053;-74
2024/01/24 05:41:35;;;;;;;0.55;0.55;;;;;;;;;;5060773;28;20048;-74
2024/01/24 05:44:03;;;;;;;0.10;0.10;;;;;;;;;;5059189;28;20056;-74
2024/01/24 05:46:31;;;;;;;0.20;0.20;;;;;;;;;;5054994;28;20989;-74
2024/01/24 05:49:00;;;;;;;0.20;0.20;;;;;;;;;;5066468;28;20531;-74
2024/01/24 05:51:28;;;;;;;0.10;0.10;;;;;;;;;;5063402;28;20048;-74
2024/01/24 05:53:56;;;;;;;0.20;0.20;;;;;;;;;;5053151;28;20068;-74
2024/01/24 05:56:24;;;;;;;0.88;0.77;;;;;;;;;;5060702;28;20048;-74
2024/01/24 05:58:51;;;;;;;1.73;1.63;;;;;;;;;;5062066;28;20179;-74
2024/01/24 06:01:18;;;;;;;9.43;6.80;;;;;;;;;;5048429;28;20048;-74
2024/01/24 06:03:46;;;;;;;1.20;1.20;;;;;;;;;;5062076;28;20498;-74
2024/01/24 06:06:14;;;;;;;2.03;1.85;;;;;;;;;;5059165;28;22590;-74
2024/01/24 06:08:43;;;;;;;0.10;0.10;;;;;;;;;;5057309;28;20041;-74
2024/01/24 06:11:14;;;;;;;0.47;0.28;;;;;;;;;;5048404;28;20060;-74
2024/01/24 06:13:41;;;;;;;0.20;0.20;;;;;;;;;;5051557;28;20040;-74
2024/01/24 06:16:09;;;;;;;0.40;0.40;;;;;;;;;;5052106;28;20522;-74
2024/01/24 06:18:36;;;;;;;0.85;0.85;;;;;;;;;;5053281;28;20749;-74
2024/01/24 06:21:04;;;;;;;0.88;0.68;;;;;;;;;;5048698;28;20145;-74
2024/01/24 06:23:32;;;;;;;0.30;0.30;;;;;;;;;;5053882;28;20165;-74
2024/01/24 06:25:59;;;;;;;5.90;2.75;;;;;;;;;;5060551;28;20052;-73
2024/01/24 06:28:26;;;;;;;3.70;1.55;;;;;;;;;;5063024;28;20136;-74
2024/01/24 06:30:54;;;;;;;1.30;1.05;;;;;;;;;;5054121;28;20415;-74
2024/01/24 06:33:22;;;;;;;0.55;0.55;;;;;;;;;;5057473;28;20098;-74
2024/01/24 06:35:49;;;;;;;0.45;0.43;;;;;;;;;;5060975;28;20097;-73
2024/01/24 06:38:17;;;;;;;2.15;1.95;;;;;;;;;;5040742;28;20060;-74
2024/01/24 06:40:44;;;;;;;0.40;0.38;;;;;;;;;;5065660;28;20044;-74
2024/01/24 06:43:18;;;;;;;2.00;1.38;;;;;;;;;;5065051;28;20045;-74
2024/01/24 06:45:46;;;;;;;0.75;0.75;;;;;;;;;;5060662;28;20064;-74
2024/01/24 06:48:14;;;;;;;0.20;0.20;;;;;;;;;;5065238;28;20039;-73
2024/01/24 06:50:42;;;;;;;0.90;0.88;;;;;;;;;;5065684;28;20064;-73
2024/01/24 06:53:14;;;;;;;2.60;1.65;;;;;;;;;;5065765;28;20037;-73
2024/01/24 06:55:44;;;;;;;1.95;1.85;;;;;;;;;;5057868;28;20046;-74
2024/01/24 06:58:11;;;;;;;0.70;0.30;;;;;;;;;;5031909;28;20255;-73
2024/01/24 07:00:38;;;;;;;0.20;0.20;;;;;;;;;;5044569;28;20749;-74
2024/01/24 07:03:06;;;;;;;0.25;0.25;;;;;;;;;;5032311;28;20086;-74
2024/01/24 07:05:33;;;;;;;0.20;0.20;;;;;;;;;;5047037;28;20186;-74
2024/01/24 07:08:01;;;;;;;1.17;1.05;;;;;;;;;;5057673;28;20052;-74
2024/01/24 07:10:28;;;;;;;0.20;0.20;;;;;;;;;;5053998;28;20052;-74
2024/01/24 07:12:56;;;;;;;0.50;0.50;;;;;;;;;;5057677;28;20387;-74
2024/01/24 07:15:25;;;;;;;1.70;1.60;;;;;;;;;;5054160;28;20049;-74
2024/01/24 07:17:53;;;;;;;0.50;0.50;;;;;;;;;;5060291;28;20123;-74
2024/01/24 07:20:20;;;;;;;0.47;0.15;;;;;;;;;;5059999;28;20059;-74
2024/01/24 07:22:48;;;;;;;0.52;0.50;;;;;;;;;;5061166;28;20055;-74
2024/01/24 07:25:19;;;;;;;0.30;0.30;;;;;;;;;;5056278;28;20052;-74
2024/01/24 07:27:48;;;;;;;0.55;0.55;;;;;;;;;;5062081;28;20516;-73
2024/01/24 07:30:15;;;;;;;1.40;1.30;;;;;;;;;;5062801;28;20120;-74
2024/01/24 07:32:43;;;;;;;0.80;0.80;;;;;;;;;;5066636;28;20094;-74
2024/01/24 07:35:10;;;;;;;0.95;0.95;;;;;;;;;;5049083;28;20456;-74
2024/01/24 07:37:38;;;;;;;0.43;0.43;;;;;;;;;;5050366;28;20052;-74
2024/01/24 07:40:06;;;;;;;0.20;0.20;;;;;;;;;;5059385;28;20132;-74
2024/01/24 07:42:33;;;;;;;0.35;0.35;;;;;;;;;;5057789;28;20139;-74
2024/01/24 07:45:01;;;;;;;1.75;1.65;;;;;;;;;;5054992;28;20045;-74
2024/01/24 07:47:29;;;;;;;0.30;0.30;;;;;;;;;;5055770;28;20130;-74
2024/01/24 07:49:57;;;;;;;0.85;0.85;;;;;;;;;;5053982;28;20044;-74
2024/01/24 07:52:25;;;;;;;1.05;1.02;;;;;;;;;;5059364;28;20044;-74
2024/01/24 07:55:07;;;;;;;0.10;0.10;;;;;;;;;;5046889;28;20272;-74
2024/01/24 07:57:35;;;;;;;0.20;0.20;;;;;;;;;;5059020;28;20056;-74
2024/01/24 08:00:04;;;;;;;0.80;0.80;;;;;;;;;;5060977;28;20056;-74
2024/01/24 08:02:32;;;;;;;0.57;0.57;;;;;;;;;;5066245;28;20532;-74
2024/01/24 08:04:59;;;;;;;0.80;0.80;;;;;;;;;;5064165;28;20445;-74
2024/01/24 08:07:28;;;;;;;1.02;1.02;;;;;;;;;;5069099;28;20387;-74
2024/01/24 08:09:55;;;;;;;1.70;1.60;;;;;;;;;;5071677;28;20261;-74
2024/01/24 08:12:23;;;;;;;0.22;0.22;;;;;;;;;;5061473;28;20045;-74
2024/01/24 08:14:52;;;;;;;0.57;0.57;;;;;;;;;;5059196;28;20041;-74
2024/01/24 08:17:20;;;;;;;0.10;0.10;;;;;;;;;;5035399;28;22324;-74
2024/01/24 08:19:51;;;;;;;0.13;0.13;;;;;;;;;;5048356;28;20052;-74
2024/01/24 08:22:20;;;;;;;2.00;1.65;;;;;;;;;;5045657;28;20041;-75
2024/01/24 08:24:47;;;;;;;0.20;0.20;;;;;;;;;;5054362;28;20570;-75
2024/01/24 08:27:16;;;;;;;1.00;1.00;;;;;;;;;;5056794;28;20121;-75
2024/01/24 08:29:43;;;;;;;1.45;1.38;;;;;;;;;;5051511;28;20045;-74
2024/01/24 08:32:11;;;;;;;0.20;0.20;;;;;;;;;;5061333;28;20473;-75
2024/01/24 08:34:39;;;;;;;0.60;0.60;;;;;;;;;;5063528;28;20040;-75
2024/01/24 08:37:08;;;;;;;2.95;2.75;;;;;;;;;;5062565;28;20095;-74
2024/01/24 08:39:35;;;;;;;1.50;1.40;;;;;;;;;;5060203;28;20102;-75
2024/01/24 08:42:03;;;;;;;1.42;1.38;;;;;;;;;;5060495;28;20083;-74
2024/01/24 08:44:31;;;;;;;4.47;3.13;;;;;;;;;;5061515;28;20045;-75
2024/01/24 08:46:58;;;;;;;3.10;2.70;;;;;;;;;;5053920;28;20051;-75
2024/01/24 08:49:25;;;;;;;2.17;2.08;;;;;;;;;;5059212;28;20048;-75
2024/01/24 08:51:53;;;;;;;3.50;2.13;;;;;;;;;;5061602;28;20044;-74
2024/01/24 08:54:21;;;;;;;2.92;1.73;;;;;;;;;;5054571;28;20310;-75
2024/01/24 08:56:49;;;;;;;1.27;1.27;;;;;;;;;;5060789;28;20409;-74
2024/01/24 08:59:18;;;;;;;1.58;1.48;;;;;;;;;;5054093;28;20501;-75
2024/01/24 09:01:46;;;;;;;2.78;2.45;;;;;;;;;;5053594;28;20045;-75
2024/01/24 09:04:14;;;;;;;1.48;1.27;;;;;;;;;;5063747;28;20041;-75
2024/01/24 09:06:46;;;;;;;6.47;3.50;;;;;;;;;;5058418;28;20060;-74
2024/01/24 09:09:13;;;;;;;1.73;1.63;;;;;;;;;;5064107;28;20394;-75
2024/01/24 09:11:42;;;;;;;2.05;1.67;;;;;;;;;;5054743;28;20033;-75
2024/01/24 09:14:23;;;;;;;2.50;1.88;;;;;;;;;;5058856;28;20634;-74
2024/01/24 09:16:51;;;;;;;1.55;1.27;;;;;;;;;;5055886;28;20037;-75
2024/01/24 09:19:18;;;;;;;0.70;0.47;;;;;;;;;;5055831;28;20575;-74
2024/01/24 09:21:46;;;;;;;0.30;0.30;;;;;;;;;;5063008;28;20040;-74
2024/01/24 09:24:14;;;;;;;0.52;0.52;;;;;;;;;;5061571;28;20048;-75
2024/01/24 09:26:41;;;;;;;0.75;0.75;;;;;;;;;;5058591;28;20115;-74
2024/01/24 09:29:12;;;;;;;0.98;0.98;;;;;;;;;;5056894;28;20528;-75
2024/01/24 09:31:45;;;;;;;1.35;1.17;;;;;;;;;;5062618;28;20040;-74
2024/01/24 09:34:14;;;;;;;0.13;0.13;;;;;;;;;;5057201;28;20049;-73
2024/01/24 09:36:42;;;;;;;0.38;0.38;;;;;;;;;;5062027;28;20464;-75
2024/01/24 09:39:10;;;;;;;2.10;0.85;;;;;;;;;;5059296;28;20048;-75
2024/01/24 09:41:50;;;;;;;1.30;1.20;;;;;;;;;;5059315;22;20405;-78
2024/01/24 09:45:00;;;;;;;2.47;2.13;;;;;;;;;;5021456;28;20123;-79
2024/01/24 09:58:57;;;;;;;;;;;;;;;;;;5008019;28;20089;-80
2024/01/24 10:01:44;;;;;;;0.82;0.82;;;;;;;;;;5015827;28;19958;-80
2024/01/24 10:04:21;;;;;;;3.78;2.78;;;;;;;;;;5003544;28;20046;-80
2024/01/24 10:06:58;;;;;;;1.58;1.42;;;;;;;;;;5010301;28;20044;-80
2024/01/24 10:09:32;;;;;;;2.08;1.73;;;;;;;;;;5012136;28;20524;-80
2024/01/24 10:15:13;;;;;;;4.95;2.63;;;;;;;;;;5011117;28;20103;-83
2024/01/24 10:17:44;;;;;;;2.42;1.75;;;;;;;;;;5013267;28;20069;-81
2024/01/24 10:20:12;;;;;;;2.77;2.57;;;;;;;;;;5010551;28;20050;-81
2024/01/24 10:22:41;;;;;;;2.10;2.00;;;;;;;;;;5014245;28;20038;-80
2024/01/24 10:25:10;;;;;;;1.23;1.13;;;;;;;;;;5014332;28;20129;-81
2024/01/24 10:27:39;;;;;;;4.47;2.83;;;;;;;;;;5014495;28;20065;-80
2024/01/24 10:30:10;;;;;;;1.15;1.05;;;;;;;;;;5012476;28;20144;-81
2024/01/24 10:32:38;;;;;;;0.83;0.83;;;;;;;;;;5015678;28;20042;-81
2024/01/24 10:35:06;;;;;;;4.63;4.13;;;;;;;;;;5020296;28;20041;-80
2024/01/24 10:37:34;;;;;;;1.67;1.17;;;;;;;;;;5019853;28;20046;-81
2024/01/24 10:40:06;;;;;;;1.90;1.60;;;;;;;;;;5019620;28;20058;-80
2024/01/24 10:42:36;;;;;;;2.63;2.28;;;;;;;;;;5022021;28;20080;-81
2024/01/24 10:45:08;;;;;;;2.08;1.85;;;;;;;;;;5016687;28;20072;-82
2024/01/24 10:47:36;;;;;;;1.80;1.70;;;;;;;;;;5008403;28;20061;-80
2024/01/24 10:50:05;;;;;;;0.95;0.95;;;;;;;;;;5013445;28;20050;-81
2024/01/24 10:52:33;;;;;;;1.30;1.13;;;;;;;;;;5011590;28;20114;-80
2024/01/24 10:55:07;;;;;;;3.45;2.78;;;;;;;;;;5006961;28;20050;-80
2024/01/24 10:57:35;;;;;;;0.10;0.10;;;;;;;;;;4992746;28;20053;-81
2024/01/24 11:00:10;;;;;;;1.40;1.30;;;;;;;;;;5007802;28;20041;-81
2024/01/24 11:02:43;;;;;;;19.80;1.55;;;;;;;;;;5011944;28;20504;-80
2024/01/24 11:05:15;;;;;;;0.85;0.85;;;;;;;;;;5004010;28;20042;-82
2024/01/24 11:07:47;;;;;;;3.75;2.80;;;;;;;;;;5007082;28;20084;-80
2024/01/24 11:10:21;;;;;;;0.93;0.93;;;;;;;;;;5023825;28;20042;-80
2024/01/24 11:12:48;;;;;;;0.63;0.63;;;;;;;;;;5011110;28;20553;-81
2024/01/24 11:15:16;;;;;;;2.50;2.30;;;;;;;;;;5012213;28;20050;-81
2024/01/24 11:17:46;;;;;;;3.65;3.05;;;;;;;;;;5012469;28;20054;-80
2024/01/24 11:20:14;;;;;;;3.67;3.40;;;;;;;;;;5011979;28;20042;-81
2024/01/24 11:22:41;;;;;;;1.50;1.40;;;;;;;;;;5000328;28;20038;-81
2024/01/24 11:25:11;;;;;;;2.55;1.00;;;;;;;;;;4999411;28;20049;-80
2024/01/24 11:27:44;;;;;;;0.10;0.10;;;;;;;;;;5006195;28;20138;-81
2024/01/24 11:30:12;;;;;;;0.60;0.60;;;;;;;;;;5006745;28;20062;-81
2024/01/24 11:33:19;;;;;;;0.10;0.10;;;;;;;;;;4989836;28;20901;-82
2024/01/24 11:39:06;;;;;;;0.20;0.20;;;;;;;;;;5008859;28;20077;-81
2024/01/24 11:41:41;;;;;;;0.40;0.40;;;;;;;;;;5017685;28;20050;-80
2024/01/24 11:44:37;;;;;;;0.32;0.32;;;;;;;;;;5006270;28;20046;-80
2024/01/24 11:47:35;;;;;;;0.10;0.10;;;;;;;;;;5018101;28;20050;-81
2024/01/24 11:54:02;;;;;;;0.88;0.50;;;;;;;;;;5020687;28;20050;-81
2024/01/24 11:57:08;;;;;;;0.20;0.20;;;;;;;;;;4960714;28;20054;-81
2024/01/24 11:59:43;;;;;;;0.10;0.10;;;;;;;;;;5015499;28;20467;-80
2024/01/24 12:05:31;;;;;;;0.10;0.10;;;;;;;;;;5036532;28;20065;-80
2024/01/24 12:07:58;;;;;;;0.20;0.20;;;;;;;;;;5019161;28;20045;-81
2024/01/24 12:10:31;;;;;;;0.35;0.35;;;;;;;;;;5023809;28;20038;-81
2024/01/24 12:13:33;;;;;;;0.30;0.30;;;;;;;;;;5018532;28;20046;-81
2024/01/24 12:16:17;;;;;;;0.22;0.22;;;;;;;;;;5013440;28;20054;-81
2024/01/24 12:18:50;;;;;;;0.57;0.20;;;;;;;;;;5036303;28;20038;-80
2024/01/24 12:21:30;;;;;;;0.00;0.00;;;;;;;;;;5023897;28;20046;-80
2024/01/24 12:24:00;;;;;;;0.10;0.10;;;;;;;;;;5023390;28;20690;-80
2024/01/24 12:26:41;;;;;;;0.35;0.35;;;;;;;;;;5018746;28;20049;-81
2024/01/24 12:29:12;;;;;;;0.10;0.10;;;;;;;;;;5041506;28;20046;-81
2024/01/24 12:31:45;;;;;;;0.10;0.10;;;;;;;;;;5029795;28;20108;-81
2024/01/24 12:34:16;;;;;;;0.20;0.20;;;;;;;;;;5021064;28;20511;-80
2024/01/24 12:36:44;;;;;;;0.55;0.55;;;;;;;;;;5019947;28;20050;-81
2024/01/24 12:39:12;;;;;;;0.20;0.20;;;;;;;;;;5020267;28;20045;-80
2024/01/24 12:41:39;;;;;;;0.28;0.20;;;;;;;;;;5027313;28;20046;-80
2024/01/24 12:44:09;;;;;;;0.03;0.03;;;;;;;;;;5019908;28;20050;-80
2024/01/24 12:46:38;;;;;;;0.20;0.20;;;;;;;;;;5022838;28;20045;-80
2024/01/24 12:49:05;;;;;;;0.45;0.45;;;;;;;;;;5020277;28;20046;-81
2024/01/24 12:51:36;;;;;;;0.20;0.20;;;;;;;;;;5018672;28;20061;-80
2024/01/24 12:54:05;;;;;;;0.45;0.45;;;;;;;;;;5019476;28;20519;-83
2024/01/24 12:56:33;;;;;;;0.75;0.40;;;;;;;;;;5014550;28;20806;-81
2024/01/24 12:59:00;;;;;;;0.52;0.40;;;;;;;;;;5011803;28;20041;-81
2024/01/24 13:01:28;;;;;;;0.22;0.22;;;;;;;;;;5013679;28;20410;-82
2024/01/24 13:03:56;;;;;;;0.77;0.77;;;;;;;;;;5019791;28;20045;-82
2024/01/24 13:06:23;;;;;;;1.10;0.50;;;;;;;;;;5009606;28;20100;-81
2024/01/24 13:08:51;;;;;;;0.10;0.10;;;;;;;;;;5018042;28;20052;-82
2024/01/24 13:11:19;;;;;;;3.83;0.90;;;;;;;;;;5012121;28;20073;-82
2024/01/24 13:13:46;;;;;;;0.10;0.10;;;;;;;;;;5020901;28;20038;-82
2024/01/24 13:16:14;;;;;;;0.22;0.15;;;;;;;;;;5017574;28;20264;-82
2024/01/24 13:18:41;;;;;;;0.38;0.38;;;;;;;;;;5016888;28;20038;-81
2024/01/24 13:21:09;;;;;;;0.20;0.20;;;;;;;;;;5007827;28;20494;-82
2024/01/24 13:23:39;;;;;;;0.60;0.60;;;;;;;;;;5012415;28;20034;-82
2024/01/24 13:26:07;;;;;;;0.10;0.10;;;;;;;;;;5010307;28;20420;-82
2024/01/24 13:28:35;;;;;;;0.10;0.10;;;;;;;;;;5010834;28;20038;-84
2024/01/24 13:31:02;;;;;;;0.20;0.20;;;;;;;;;;5016427;28;20074;-83
2024/01/24 13:33:30;;;;;;;0.38;0.38;;;;;;;;;;5019151;28;20057;-82
2024/01/24 13:35:58;;;;;;;0.10;0.10;;;;;;;;;;5017852;28;20049;-81
2024/01/24 13:38:28;;;;;;;0.10;0.10;;;;;;;;;;5016249;28;20038;-82
2024/01/24 13:40:57;;;;;;;0.32;0.25;;;;;;;;;;5018384;28;20117;-81
2024/01/24 13:43:25;;;;;;;0.00;0.00;;;;;;;;;;5020317;28;20045;-81
2024/01/24 13:45:52;;;;;;;0.40;0.28;;;;;;;;;;5019210;28;20046;-83
2024/01/24 13:48:20;;;;;;;0.45;0.45;;;;;;;;;;5014123;28;20057;-80
2024/01/24 13:50:48;;;;;;;1.00;0.38;;;;;;;;;;5017632;28;20060;-81
2024/01/24 13:53:15;;;;;;;0.20;0.20;;;;;;;;;;5016710;28;20046;-80
2024/01/24 13:55:43;;;;;;;3.30;0.52;;;;;;;;;;5028967;28;20200;-80
2024/01/24 13:58:11;;;;;;;0.15;0.15;;;;;;;;;;5030525;28;20050;-81
2024/01/24 14:00:41;;;;;;;0.45;0.20;;;;;;;;;;5024691;28;20085;-79
2024/01/24 14:03:10;;;;;;;0.28;0.28;;;;;;;;;;5024659;28;20117;-80
2024/01/24 14:05:38;;;;;;;0.20;0.20;;;;;;;;;;5029928;28;20109;-80
2024/01/24 14:08:07;;;;;;;0.88;0.38;;;;;;;;;;5032008;28;20061;-79
2024/01/24 14:10:35;;;;;;;0.10;0.10;;;;;;;;;;5029627;28;20265;-79
2024/01/24 14:13:02;;;;;;;0.50;0.50;;;;;;;;;;5026286;28;20054;-80
2024/01/24 14:15:30;;;;;;;0.75;0.65;;;;;;;;;;5015555;28;20470;-79
2024/01/24 14:18:03;;;;;;;0.40;0.40;;;;;;;;;;5008694;28;20053;-79
2024/01/24 14:20:32;;;;;;;4.38;0.30;;;;;;;;;;5010637;28;20049;-80
2024/01/24 14:23:00;;;;;;;0.40;0.40;;;;;;;;;;5011677;28;20046;-80
2024/01/24 14:25:28;;;;;;;2.70;0.50;;;;;;;;;;5012629;28;20042;-80
2024/01/24 14:27:56;;;;;;;0.10;0.10;;;;;;;;;;5015400;28;20049;-79
2024/01/24 14:30:24;;;;;;;0.22;0.17;;;;;;;;;;5017833;28;20061;-80
2024/01/24 14:32:52;;;;;;;0.85;0.30;;;;;;;;;;5016930;28;20050;-80
2024/01/24 14:35:19;;;;;;;0.25;0.25;;;;;;;;;;5018552;28;20319;-80
2024/01/24 14:37:47;;;;;;;0.40;0.40;;;;;;;;;;5012551;28;20049;-79
2024/01/24 14:40:15;;;;;;;1.27;0.77;;;;;;;;;;5018122;28;20768;-79
2024/01/24 14:42:43;;;;;;;0.10;0.10;;;;;;;;;;5017555;28;20042;-80
2024/01/24 14:45:10;;;;;;;0.45;0.45;;;;;;;;;;5012878;28;20080;-79
2024/01/24 14:47:38;;;;;;;0.65;0.65;;;;;;;;;;5012300;28;20077;-80
2024/01/24 14:50:07;;;;;;;0.10;0.10;;;;;;;;;;5013310;28;20065;-80
2024/01/24 14:52:35;;;;;;;0.40;0.40;;;;;;;;;;5013518;28;20109;-80
2024/01/24 14:55:02;;;;;;;0.10;0.10;;;;;;;;;;5022272;28;20041;-79
2024/01/24 14:57:33;;;;;;;0.10;0.10;;;;;;;;;;5030099;28;20110;-79
2024/01/24 15:00:10;;;;;;;0.10;0.10;;;;;;;;;;5026046;28;20105;-79
2024/01/24 15:02:38;;;;;;;0.20;0.20;;;;;;;;;;5014621;28;20172;-79
2024/01/24 15:05:07;;;;;;;0.10;0.10;;;;;;;;;;5025091;28;20053;-79
2024/01/24 15:07:36;;;;;;;0.10;0.10;;;;;;;;;;5026261;28;20042;-79
2024/01/24 15:10:04;;;;;;;0.28;0.28;;;;;;;;;;5023653;28;20082;-81
2024/01/24 15:12:36;;;;;;;0.13;0.13;;;;;;;;;;5024804;28;20489;-79
2024/01/24 15:15:04;;;;;;;0.20;0.20;;;;;;;;;;5024144;28;20068;-80
2024/01/24 15:17:32;;;;;;;0.00;0.00;;;;;;;;;;5010482;28;20064;-85
2024/01/24 15:20:03;;;;;;;0.40;0.40;;;;;;;;;;5022105;28;20053;-80